createdAt,value
2022-11-29T00:02:37.647Z,13.15
2022-11-29T00:05:41.263Z,12.25
2022-11-29T00:08:44.740Z,12.52
2022-11-29T00:12:06.498Z,12.02
2022-11-29T00:15:09.450Z,12.43
2022-11-29T00:18:12.738Z,12.30
2022-11-29T00:21:15.620Z,12.82
2022-11-29T00:24:18.951Z,12.80
2022-11-29T00:27:21.825Z,13.27
2022-11-29T00:30:25.465Z,12.73
2022-11-29T00:33:28.456Z,13.07
2022-11-29T00:36:31.676Z,12.05
2022-11-29T00:39:35.145Z,12.27
2022-11-29T00:42:38.149Z,12.48
2022-11-29T00:45:41.903Z,12.40
2022-11-29T00:48:45.356Z,12.75
2022-11-29T00:51:48.216Z,13.18
2022-11-29T00:54:51.478Z,13.55
2022-11-29T00:57:54.426Z,12.82
2022-11-29T01:00:58.051Z,12.98
2022-11-29T01:04:02.069Z,11.48
2022-11-29T01:07:05.166Z,13.13
2022-11-29T01:10:08.283Z,11.98
2022-11-29T01:13:11.785Z,12.50
2022-11-29T01:16:15.750Z,13.93
2022-11-29T01:19:19.192Z,12.52
2022-11-29T01:22:23.206Z,13.70
2022-11-29T01:25:26.481Z,13.40
2022-11-29T01:28:30.546Z,14.23
2022-11-29T01:34:41.399Z,12.95
2022-11-29T01:37:44.788Z,11.88
2022-11-29T01:41:06.273Z,11.40
2022-11-29T01:44:12.863Z,11.98
2022-11-29T01:47:17.098Z,11.40
2022-11-29T01:50:20.932Z,12.13
2022-11-29T01:53:23.921Z,11.93
2022-11-29T01:56:28.858Z,11.60
2022-11-29T01:59:31.995Z,12.18
2022-11-29T02:02:41.044Z,12.07
2022-11-29T02:05:51.914Z,11.15
2022-11-29T02:08:54.896Z,10.68
2022-11-29T02:12:15.694Z,10.80
2022-11-29T02:15:26.132Z,9.95
2022-11-29T02:18:44.395Z,10.85
2022-11-29T02:21:52.626Z,9.32
2022-11-29T02:25:10.125Z,9.82
2022-11-29T02:28:15.908Z,9.27
2022-11-29T02:31:38.074Z,10.65
2022-11-29T02:34:53.133Z,10.98
2022-11-29T02:38:15.179Z,9.55
2022-11-29T02:41:20.957Z,10.18
2022-11-29T02:44:52.957Z,8.15
2022-11-29T02:48:07.318Z,9.02
2022-11-29T02:51:16.620Z,9.10
2022-11-29T02:54:36.824Z,9.05
2022-11-29T02:57:51.067Z,8.63
2022-11-29T03:01:03.693Z,8.07
2022-11-29T03:04:32.152Z,8.55
2022-11-29T03:08:16.719Z,8.85
2022-11-29T03:12:02.054Z,8.48
2022-11-29T03:15:19.771Z,8.88
2022-11-29T03:18:44.305Z,9.73
2022-11-29T03:22:12.476Z,10.43
2022-11-29T03:25:26.981Z,10.35
2022-11-29T03:28:54.526Z,10.50
2022-11-29T03:32:03.965Z,10.07
2022-11-29T03:35:40.475Z,8.88
2022-11-29T03:38:46.401Z,8.40
2022-11-29T03:45:25.473Z,9.32
2022-11-29T03:48:35.630Z,9.68
2022-11-29T03:52:10.848Z,11.35
2022-11-29T03:55:47.113Z,9.50
2022-11-29T03:59:18.684Z,8.25
2022-11-29T04:02:47.208Z,9.27
2022-11-29T04:06:21.474Z,10.55
2022-11-29T04:09:36.578Z,9.52
2022-11-29T04:13:17.519Z,10.73
2022-11-29T04:16:45.234Z,11.00
2022-11-29T04:20:11.137Z,11.05
2022-11-29T04:23:51.471Z,12.45
2022-11-29T04:27:13.657Z,11.55
2022-11-29T04:30:24.381Z,11.60
2022-11-29T04:33:49.813Z,10.88
2022-11-29T04:37:15.086Z,9.85
2022-11-29T04:40:28.059Z,9.65
2022-11-29T04:44:07.757Z,10.52
2022-11-29T04:47:41.205Z,11.93
2022-11-29T04:50:54.114Z,11.77
2022-11-29T04:54:05.431Z,11.65
2022-11-29T04:57:38.067Z,12.40
2022-11-29T05:01:01.442Z,11.45
2022-11-29T05:04:19.638Z,9.93
2022-11-29T05:08:00.211Z,10.85
2022-11-29T05:11:15.121Z,11.95
2022-11-29T05:14:29.269Z,10.88
2022-11-29T05:17:51.300Z,10.20
2022-11-29T05:21:07.160Z,11.10
2022-11-29T05:24:41.867Z,10.57
2022-11-29T05:28:20.889Z,9.38
2022-11-29T05:31:23.853Z,9.50
2022-11-29T05:34:46.816Z,8.00
2022-11-29T05:37:54.243Z,7.50
2022-11-29T05:41:15.784Z,7.60
2022-11-29T05:44:28.754Z,7.57
2022-11-29T05:47:49.489Z,6.93
2022-11-29T05:51:10.061Z,8.00
2022-11-29T05:54:30.071Z,7.43
2022-11-29T05:57:59.627Z,7.28
2022-11-29T06:01:40.585Z,7.03
2022-11-29T06:05:13.723Z,7.07
2022-11-29T06:08:35.760Z,7.53
2022-11-29T06:11:45.948Z,7.72
2022-11-29T06:15:17.374Z,8.27
2022-11-29T06:19:06.820Z,7.57
2022-11-29T06:22:21.432Z,8.18
2022-11-29T06:25:24.509Z,8.70
2022-11-29T06:29:09.202Z,9.02
2022-11-29T06:32:45.389Z,9.05
2022-11-29T06:35:57.784Z,11.43
2022-11-29T06:39:00.941Z,11.45
2022-11-29T06:42:04.444Z,10.27
2022-11-29T06:45:08.392Z,10.73
2022-11-29T06:48:15.802Z,9.77
2022-11-29T06:51:19.161Z,9.60
2022-11-29T06:54:35.578Z,10.45
2022-11-29T06:57:57.520Z,10.18
2022-11-29T07:01:07.257Z,10.98
2022-11-29T07:04:22.704Z,10.52
2022-11-29T07:07:25.921Z,11.20
2022-11-29T07:10:32.513Z,10.70
2022-11-29T07:13:35.764Z,15.32
2022-11-29T07:16:57.021Z,12.43
2022-11-29T07:20:20.743Z,16.98
2022-11-29T07:23:39.316Z,16.27
2022-11-29T07:26:55.150Z,16.35
2022-11-29T07:30:05.518Z,12.75
2022-11-29T07:33:27.763Z,12.85
2022-11-29T07:36:52.564Z,16.20
2022-11-29T07:40:14.699Z,15.32
2022-11-29T07:43:21.647Z,14.30
2022-11-29T07:46:25.724Z,20.17
2022-11-29T07:49:29.013Z,22.00
2022-11-29T07:52:31.958Z,19.27
2022-11-29T07:55:36.273Z,15.70
2022-11-29T07:58:39.560Z,14.45
2022-11-29T08:01:42.939Z,14.07
2022-11-29T08:04:46.494Z,15.07
2022-11-29T08:07:50.047Z,15.32
2022-11-29T08:10:53.764Z,15.02
2022-11-29T08:13:58.278Z,15.68
2022-11-29T08:17:01.438Z,13.77
2022-11-29T08:20:05.192Z,14.32
2022-11-29T08:23:11.413Z,14.38
2022-11-29T08:26:15.519Z,13.62
2022-11-29T08:29:20.163Z,13.60
2022-11-29T08:32:23.153Z,13.05
2022-11-29T08:35:27.479Z,12.13
2022-11-29T08:38:30.500Z,13.05
2022-11-29T08:41:33.765Z,12.85
2022-11-29T08:44:36.837Z,13.38
2022-11-29T08:47:42.433Z,14.13
2022-11-29T08:53:52.104Z,12.90
2022-11-29T09:00:19.150Z,13.25
2022-11-29T09:03:40.812Z,12.77
2022-11-29T09:06:44.585Z,12.52
2022-11-29T09:09:48.493Z,13.50
2022-11-29T09:12:51.865Z,13.90
2022-11-29T09:15:55.288Z,13.27
2022-11-29T09:18:59.076Z,13.23
2022-11-29T09:22:02.003Z,14.13
2022-11-29T09:25:06.102Z,15.38
2022-11-29T09:28:09.102Z,13.70
2022-11-29T09:31:15.600Z,13.43
2022-11-29T09:34:18.890Z,13.13
2022-11-29T09:37:23.709Z,13.77
2022-11-29T09:40:34.052Z,14.10
2022-11-29T09:44:22.339Z,13.38
2022-11-29T09:47:44.055Z,13.10
2022-11-29T09:50:50.271Z,13.40
2022-11-29T09:53:57.095Z,13.23
2022-11-29T09:57:00.447Z,13.85
2022-11-29T10:00:06.797Z,14.10
2022-11-29T10:03:33.850Z,13.98
2022-11-29T10:06:39.664Z,13.48
2022-11-29T10:09:56.350Z,13.25
2022-11-29T10:13:05.975Z,12.85
2022-11-29T10:16:19.793Z,13.23
2022-11-29T10:19:33.522Z,13.45
2022-11-29T10:22:53.409Z,13.43
2022-11-29T10:25:58.253Z,13.50
2022-11-29T10:29:01.370Z,13.88
2022-11-29T10:32:12.029Z,13.65
2022-11-29T10:35:18.671Z,12.40
2022-11-29T10:38:36.796Z,10.55
2022-11-29T10:41:40.037Z,9.82
2022-11-29T10:44:43.055Z,9.57
2022-11-29T10:47:47.886Z,10.27
2022-11-29T10:50:52.599Z,8.43
2022-11-29T10:53:56.582Z,9.40
2022-11-29T10:57:00.823Z,8.77
2022-11-29T11:00:10.240Z,8.03
2022-11-29T11:03:43.725Z,13.30
2022-11-29T11:06:58.376Z,8.65
2022-11-29T11:10:02.984Z,8.85
2022-11-29T11:13:20.489Z,8.35
2022-11-29T11:16:26.780Z,8.73
2022-11-29T11:19:34.219Z,9.02
2022-11-29T11:22:40.006Z,8.25
2022-11-29T11:25:43.276Z,8.57
2022-11-29T11:29:00.979Z,8.40
2022-11-29T11:32:05.615Z,7.78
2022-11-29T11:35:22.279Z,8.17
2022-11-29T11:38:25.455Z,8.05
2022-11-29T11:41:49.725Z,7.55
2022-11-29T11:44:53.733Z,7.75
2022-11-29T11:48:10.873Z,8.70
2022-11-29T11:51:23.716Z,8.25
2022-11-29T11:54:27.197Z,9.18
2022-11-29T11:57:31.734Z,7.50
2022-11-29T12:01:08.649Z,7.82
2022-11-29T12:04:20.850Z,8.07
2022-11-29T12:08:06.747Z,8.18
2022-11-29T12:11:07.969Z,10.95
2022-11-29T12:14:21.675Z,8.07
2022-11-29T12:17:42.208Z,8.35
2022-11-29T12:20:54.835Z,7.85
2022-11-29T12:24:12.059Z,8.40
2022-11-29T12:27:16.239Z,8.50
2022-11-29T12:30:19.904Z,8.83
2022-11-29T12:33:44.680Z,8.68
2022-11-29T12:37:02.357Z,7.97
2022-11-29T12:40:28.524Z,8.07
2022-11-29T12:43:51.606Z,7.90
2022-11-29T12:47:34.771Z,7.90
2022-11-29T12:50:33.399Z,7.28
2022-11-29T12:53:45.453Z,8.80
2022-11-29T12:57:10.429Z,8.15
2022-11-29T13:00:16.597Z,7.60
2022-11-29T13:03:27.542Z,7.22
2022-11-29T13:06:42.815Z,7.47
2022-11-29T13:09:50.210Z,7.37
2022-11-29T13:12:56.768Z,7.68
2022-11-29T13:16:30.643Z,8.07
2022-11-29T13:19:54.188Z,7.57
2022-11-29T13:23:52.902Z,7.70
2022-11-29T13:26:52.922Z,7.28
2022-11-29T13:29:58.411Z,7.40
2022-11-29T13:36:18.941Z,7.57
2022-11-29T13:39:37.081Z,7.72
2022-11-29T13:43:04.142Z,7.47
2022-11-29T13:46:20.587Z,7.18
2022-11-29T13:50:03.814Z,7.75
2022-11-29T13:53:13.226Z,8.23
2022-11-29T13:56:43.239Z,7.93
2022-11-29T13:59:49.618Z,8.23
2022-11-29T14:02:54.796Z,7.95
2022-11-29T14:06:02.949Z,7.90
2022-11-29T14:09:27.436Z,7.82
2022-11-29T14:12:40.905Z,9.07
2022-11-29T14:15:44.096Z,8.50
2022-11-29T14:19:05.220Z,9.23
2022-11-29T14:22:20.106Z,9.02
2022-11-29T14:25:50.504Z,8.80
2022-11-29T14:28:48.313Z,9.77
2022-11-29T14:31:52.704Z,9.00
2022-11-29T14:35:11.002Z,14.40
2022-11-29T14:38:20.449Z,16.17
2022-11-29T14:41:39.159Z,14.30
2022-11-29T14:44:51.220Z,11.18
2022-11-29T14:47:54.378Z,11.52
2022-11-29T14:51:20.016Z,11.52
2022-11-29T14:54:22.995Z,7.37
2022-11-29T14:57:45.289Z,9.75
2022-11-29T15:00:48.037Z,8.70
2022-11-29T15:03:52.293Z,10.10
2022-11-29T15:06:56.077Z,11.75
2022-11-29T15:10:04.864Z,12.43
2022-11-29T15:13:12.565Z,13.73
2022-11-29T15:16:35.151Z,14.45
2022-11-29T15:20:04.341Z,14.43
2022-11-29T15:23:15.111Z,17.77
2022-11-29T15:26:21.998Z,19.65
2022-11-29T15:29:26.289Z,19.17
2022-11-29T15:32:32.693Z,17.77
2022-11-29T15:35:36.779Z,18.05
2022-11-29T15:38:48.984Z,16.70
2022-11-29T15:41:53.790Z,19.23
2022-11-29T15:44:57.638Z,20.05
2022-11-29T15:48:16.279Z,16.65
2022-11-29T15:51:30.112Z,15.95
2022-11-29T15:54:42.468Z,14.75
2022-11-29T15:57:48.892Z,15.05
2022-11-29T16:00:52.582Z,15.20
2022-11-29T16:03:57.335Z,13.27
2022-11-29T16:07:00.415Z,15.63
2022-11-29T16:10:07.983Z,18.67
2022-11-29T16:13:38.820Z,14.02
2022-11-29T16:16:44.488Z,12.07
2022-11-29T16:19:48.294Z,16.92
2022-11-29T16:23:12.240Z,19.40
2022-11-29T16:26:26.554Z,18.37
2022-11-29T16:29:38.898Z,18.00
2022-11-29T16:32:47.413Z,18.67
2022-11-29T16:36:08.456Z,16.42
2022-11-29T16:39:23.860Z,17.98
2022-11-29T16:42:31.656Z,21.70
2022-11-29T16:45:42.012Z,23.90
2022-11-29T16:48:45.833Z,17.65
2022-11-29T16:51:49.577Z,19.12
2022-11-29T16:54:55.980Z,17.45
2022-11-29T16:57:59.240Z,16.92
2022-11-29T17:01:20.159Z,13.48
2022-11-29T17:04:25.130Z,13.90
2022-11-29T17:07:33.029Z,20.98
2022-11-29T17:10:43.098Z,30.67
2022-11-29T17:14:41.845Z,31.33
2022-11-29T17:18:13.267Z,22.60
2022-11-29T17:21:25.700Z,19.67
2022-11-29T17:24:30.087Z,16.87
2022-11-29T17:27:33.460Z,15.18
2022-11-29T17:30:36.943Z,13.98
2022-11-29T17:33:40.715Z,17.25
2022-11-29T20:22:27.590Z,20.80
2022-11-29T20:25:31.866Z,21.48
2022-11-29T20:28:37.837Z,22.17
2022-11-29T20:31:49.156Z,21.75
2022-11-29T20:34:56.570Z,21.58
2022-11-29T20:38:36.496Z,23.77
2022-11-29T20:42:16.124Z,27.80
2022-11-29T20:45:24.725Z,29.15
2022-11-29T20:48:50.889Z,27.37
2022-11-29T20:52:04.038Z,29.87
2022-11-29T20:55:07.801Z,30.62
2022-11-29T20:58:12.514Z,29.27
2022-11-29T21:01:16.993Z,29.02
2022-11-29T21:04:23.574Z,29.75
2022-11-29T21:07:27.344Z,29.52
2022-11-29T21:10:31.140Z,25.98
2022-11-29T21:13:34.800Z,28.55
2022-11-29T21:16:39.071Z,28.98
2022-11-29T21:19:42.956Z,28.67
2022-11-29T21:23:03.178Z,29.87
2022-11-29T21:26:17.757Z,28.60
2022-11-29T21:29:23.410Z,33.33
2022-11-29T21:32:27.628Z,31.17
2022-11-29T21:35:30.923Z,31.33
2022-11-29T21:38:33.905Z,34.30
2022-11-29T21:41:37.326Z,31.83
2022-11-29T21:44:40.451Z,28.98
2022-11-29T21:47:44.629Z,28.42
2022-11-29T21:50:50.352Z,26.83
2022-11-29T21:53:53.766Z,25.70
2022-11-29T21:56:57.296Z,22.37
2022-11-29T22:00:00.816Z,23.50
2022-11-29T22:03:04.272Z,29.45
2022-11-29T22:06:18.771Z,29.00
2022-11-29T22:09:21.886Z,30.92
2022-11-29T22:12:34.085Z,28.85
2022-11-29T22:15:37.850Z,25.17
2022-11-29T22:18:41.386Z,26.55
2022-11-29T22:21:47.442Z,30.52
2022-11-29T22:24:50.835Z,29.00
2022-11-29T22:27:54.143Z,28.33
2022-11-29T22:31:09.289Z,24.70
2022-11-29T22:34:12.343Z,23.80
2022-11-29T22:37:15.801Z,27.67
2022-11-29T22:40:18.951Z,26.90
2022-11-29T22:43:22.357Z,25.85
2022-11-29T22:46:27.533Z,24.00
2022-11-29T22:49:33.205Z,27.02
2022-11-29T22:52:36.602Z,30.42
2022-11-29T22:55:39.989Z,27.73
2022-11-29T22:58:43.166Z,29.35
2022-11-29T23:01:48.137Z,27.87
2022-11-29T23:04:51.278Z,29.60
2022-11-29T23:07:55.550Z,27.63
2022-11-29T23:11:01.121Z,28.05
2022-11-29T23:14:05.538Z,28.20
2022-11-29T23:17:08.782Z,29.83
2022-11-29T23:20:12.868Z,28.17
2022-11-29T23:23:15.979Z,28.00
2022-11-29T23:26:25.149Z,20.92
2022-11-29T23:29:28.123Z,23.33
2022-11-29T23:32:31.196Z,21.60
2022-11-29T23:35:34.421Z,25.27
2022-11-29T23:38:38.177Z,22.77
2022-11-29T23:41:41.121Z,25.90
2022-11-29T23:44:45.568Z,24.73
2022-11-29T23:47:49.244Z,25.30
2022-11-29T23:50:52.449Z,26.60
2022-11-29T23:53:55.491Z,23.45
2022-11-29T23:56:59.560Z,24.45
